createdAt,value
2022-12-22T00:02:00.100Z,9.08
2022-12-22T00:05:22.776Z,9.12
2022-12-22T00:08:44.405Z,9.16
2022-12-22T00:12:06.361Z,9.24
2022-12-22T00:15:35.196Z,9.25
2022-12-22T00:18:55.505Z,9.27
2022-12-22T00:22:35.133Z,9.27
2022-12-22T00:25:55.530Z,9.30
2022-12-22T00:29:16.212Z,9.34
2022-12-22T00:32:38.896Z,9.41
2022-12-22T00:35:59.212Z,9.43
2022-12-22T00:39:19.394Z,9.48
2022-12-22T00:42:42.703Z,9.51
2022-12-22T00:46:04.922Z,9.56
2022-12-22T00:49:30.758Z,9.55
2022-12-22T00:52:51.842Z,9.58
2022-12-22T00:56:12.147Z,9.60
2022-12-22T00:59:36.054Z,9.58
2022-12-22T01:02:56.892Z,9.63
2022-12-22T01:06:20.810Z,9.65
2022-12-22T01:09:42.035Z,9.63
2022-12-22T01:13:06.084Z,9.64
2022-12-22T01:16:29.335Z,9.63
2022-12-22T01:19:51.567Z,9.63
2022-12-22T01:23:16.244Z,9.64
2022-12-22T01:26:37.201Z,9.64
2022-12-22T01:29:57.486Z,9.64
2022-12-22T01:33:17.608Z,9.67
2022-12-22T01:36:37.862Z,9.47
2022-12-22T01:39:59.284Z,9.71
2022-12-22T01:43:19.426Z,9.74
2022-12-22T01:46:42.345Z,9.82
2022-12-22T01:50:02.647Z,9.66
2022-12-22T01:53:27.111Z,9.81
2022-12-22T01:56:56.343Z,9.80
2022-12-22T02:00:17.190Z,9.82
2022-12-22T02:03:39.425Z,9.84
2022-12-22T02:07:04.154Z,9.85
2022-12-22T02:10:38.743Z,9.86
2022-12-22T02:14:11.139Z,9.88
2022-12-22T02:17:39.947Z,9.91
2022-12-22T02:21:06.694Z,9.90
2022-12-22T02:24:39.489Z,9.89
2022-12-22T02:28:04.093Z,9.90
2022-12-22T02:31:27.398Z,9.91
2022-12-22T02:34:47.746Z,9.92
2022-12-22T02:38:28.291Z,9.93
2022-12-22T02:42:08.153Z,9.99
2022-12-22T02:45:46.566Z,10.03
2022-12-22T02:49:11.411Z,9.96
2022-12-22T02:52:36.576Z,10.06
2022-12-22T02:56:01.352Z,10.11
2022-12-22T02:59:24.632Z,10.14
2022-12-22T03:02:56.064Z,10.17
2022-12-22T03:06:19.611Z,10.18
2022-12-22T03:09:41.451Z,10.22
2022-12-22T03:13:01.553Z,10.25
2022-12-22T03:16:21.796Z,10.26
2022-12-22T03:19:43.169Z,10.29
2022-12-22T03:23:04.148Z,10.28
2022-12-22T03:26:06.886Z,10.27
2022-12-22T03:29:09.675Z,10.28
2022-12-22T03:32:12.327Z,10.26
2022-12-22T03:35:16.323Z,10.28
2022-12-22T03:38:24.086Z,10.28
2022-12-22T03:41:44.229Z,10.30
2022-12-22T03:45:21.452Z,10.25
2022-12-22T03:48:24.102Z,10.25
2022-12-22T03:51:28.234Z,10.25
2022-12-22T03:54:30.857Z,10.25
2022-12-22T03:57:33.591Z,10.26
2022-12-22T04:00:36.280Z,10.28
2022-12-22T04:03:41.353Z,10.32
2022-12-22T04:06:45.965Z,10.33
2022-12-22T04:10:02.649Z,10.37
2022-12-22T04:13:06.853Z,10.37
2022-12-22T04:16:09.612Z,10.40
2022-12-22T04:19:12.312Z,10.42
2022-12-22T04:22:16.325Z,10.43
2022-12-22T04:25:22.340Z,10.43
2022-12-22T04:28:25.140Z,10.48
2022-12-22T04:31:31.490Z,10.53
2022-12-22T04:34:34.824Z,10.56
2022-12-22T04:37:38.888Z,10.64
2022-12-22T04:40:44.671Z,10.61
2022-12-22T04:43:47.330Z,10.64
2022-12-22T04:46:55.239Z,10.63
2022-12-22T04:50:00.913Z,10.62
2022-12-22T04:53:05.352Z,10.62
2022-12-22T04:56:11.115Z,10.60
2022-12-22T04:59:13.888Z,10.58
2022-12-22T05:02:16.780Z,10.59
2022-12-22T05:05:26.977Z,10.59
2022-12-22T05:08:30.979Z,10.61
2022-12-22T05:11:36.187Z,10.60
2022-12-22T05:14:52.753Z,10.61
2022-12-22T05:17:55.933Z,10.60
2022-12-22T05:20:58.577Z,10.57
2022-12-22T05:24:03.166Z,10.61
2022-12-22T05:27:08.847Z,10.58
2022-12-22T05:30:12.738Z,10.48
2022-12-22T05:33:15.407Z,10.56
2022-12-22T05:36:18.329Z,10.53
2022-12-22T05:39:25.565Z,10.51
2022-12-22T05:42:37.256Z,10.53
2022-12-22T05:45:40.320Z,10.54
2022-12-22T05:48:42.973Z,10.54
2022-12-22T05:51:48.969Z,10.58
2022-12-22T05:54:53.014Z,10.57
2022-12-22T05:57:56.540Z,10.60
2022-12-22T06:01:10.045Z,10.60
2022-12-22T06:04:12.811Z,10.63
2022-12-22T06:07:27.742Z,10.66
2022-12-22T06:10:37.770Z,10.68
2022-12-22T06:13:40.426Z,10.73
2022-12-22T06:16:43.099Z,10.63
2022-12-22T06:19:45.756Z,10.74
2022-12-22T06:22:48.478Z,10.76
2022-12-22T06:25:56.979Z,10.78
2022-12-22T06:29:01.960Z,10.82
2022-12-22T06:32:05.532Z,10.86
2022-12-22T06:35:09.770Z,10.87
2022-12-22T06:38:12.533Z,10.89
2022-12-22T06:41:36.610Z,10.89
2022-12-22T06:44:38.323Z,10.94
2022-12-22T06:47:48.451Z,10.98
2022-12-22T06:50:51.936Z,11.00
2022-12-22T06:53:54.560Z,11.07
2022-12-22T06:56:58.802Z,11.11
2022-12-22T07:00:01.783Z,11.12
2022-12-22T07:03:05.543Z,11.15
2022-12-22T07:06:08.722Z,11.11
2022-12-22T07:09:11.450Z,11.09
2022-12-22T07:12:15.496Z,11.07
2022-12-22T07:15:18.221Z,11.03
2022-12-22T07:18:21.318Z,11.07
2022-12-22T07:21:24.900Z,11.05
2022-12-22T07:24:34.990Z,11.07
2022-12-22T07:27:39.267Z,11.04
2022-12-22T07:30:42.038Z,11.09
2022-12-22T07:33:46.927Z,11.13
2022-12-22T07:36:52.772Z,11.15
2022-12-22T07:39:58.214Z,11.15
2022-12-22T07:43:05.281Z,11.15
2022-12-22T07:46:08.186Z,11.14
2022-12-22T07:49:31.563Z,11.13
2022-12-22T07:52:34.294Z,11.12
2022-12-22T07:55:37.659Z,11.09
2022-12-22T07:58:43.490Z,11.12
2022-12-22T08:01:49.286Z,11.11
2022-12-22T08:04:52.949Z,11.11
2022-12-22T08:07:56.142Z,11.10
2022-12-22T08:11:05.261Z,11.12
2022-12-22T08:14:09.673Z,11.14
2022-12-22T08:17:12.454Z,11.14
2022-12-22T08:20:15.243Z,11.15
2022-12-22T08:23:20.298Z,11.17
2022-12-22T08:26:33.634Z,11.19
2022-12-22T08:29:44.540Z,11.21
2022-12-22T08:32:49.668Z,11.25
2022-12-22T08:35:55.229Z,11.32
2022-12-22T08:39:03.943Z,11.32
2022-12-22T08:42:10.256Z,11.35
2022-12-22T08:45:14.342Z,11.38
2022-12-22T08:48:17.045Z,11.41
2022-12-22T08:51:29.038Z,11.43
2022-12-22T08:54:31.753Z,11.46
2022-12-22T08:57:55.678Z,11.52
2022-12-22T09:01:00.565Z,11.54
2022-12-22T09:04:04.137Z,11.61
2022-12-22T09:07:07.360Z,11.68
2022-12-22T09:10:28.757Z,11.81
2022-12-22T09:13:54.895Z,11.97
2022-12-22T09:17:17.522Z,12.13
2022-12-22T09:20:38.544Z,12.33
2022-12-22T09:24:00.106Z,12.40
2022-12-22T09:27:24.267Z,12.45
2022-12-22T09:30:58.061Z,12.47
2022-12-22T09:34:02.541Z,12.48
2022-12-22T09:37:06.470Z,12.47
2022-12-22T09:40:10.574Z,12.46
2022-12-22T09:43:16.692Z,12.39
2022-12-22T09:46:26.468Z,12.30
2022-12-22T09:49:37.718Z,12.28
2022-12-22T09:52:47.377Z,12.26
2022-12-22T09:55:51.472Z,12.32
2022-12-22T09:58:56.563Z,12.37
2022-12-22T10:02:11.766Z,12.48
2022-12-22T10:05:28.727Z,12.55
2022-12-22T10:08:35.530Z,12.54
2022-12-22T10:11:39.071Z,12.44
2022-12-22T10:14:44.767Z,12.39
2022-12-22T10:17:50.803Z,12.33
2022-12-22T10:21:11.332Z,12.20
2022-12-22T10:24:19.502Z,12.17
2022-12-22T10:27:28.652Z,12.08
2022-12-22T10:30:35.613Z,12.03
2022-12-22T10:33:45.874Z,12.03
2022-12-22T10:37:02.573Z,11.98
2022-12-22T10:40:17.346Z,11.93
2022-12-22T10:43:26.533Z,11.92
2022-12-22T10:46:34.645Z,11.85
2022-12-22T10:49:47.165Z,11.87
2022-12-22T10:52:59.228Z,11.88
2022-12-22T10:56:07.371Z,11.87
2022-12-22T10:59:20.132Z,11.91
2022-12-22T11:02:29.708Z,11.89
2022-12-22T11:05:33.930Z,11.86
2022-12-22T11:08:37.939Z,11.84
2022-12-22T11:11:47.447Z,11.69
2022-12-22T11:14:57.624Z,11.75
2022-12-22T11:18:07.762Z,11.71
2022-12-22T11:21:23.988Z,11.67
2022-12-22T11:24:40.044Z,11.67
2022-12-22T11:27:54.735Z,11.67
2022-12-22T11:31:14.118Z,11.65
2022-12-22T11:34:36.377Z,11.67
2022-12-22T11:37:51.453Z,11.70
2022-12-22T11:41:03.600Z,11.71
2022-12-22T11:44:42.228Z,11.72
2022-12-22T11:47:55.884Z,11.69
2022-12-22T11:51:12.642Z,11.73
2022-12-22T11:54:43.711Z,11.77
2022-12-22T11:58:02.293Z,11.76
2022-12-22T12:01:31.063Z,11.74
2022-12-22T12:05:12.378Z,11.70
2022-12-22T12:08:26.705Z,11.73
2022-12-22T12:11:40.360Z,11.79
2022-12-22T12:14:54.557Z,11.85
2022-12-22T12:18:21.731Z,11.91
2022-12-22T12:21:29.183Z,11.94
2022-12-22T12:24:54.003Z,12.12
2022-12-22T12:28:15.124Z,12.24
2022-12-22T12:31:26.329Z,12.26
2022-12-22T12:34:35.046Z,12.22
2022-12-22T12:37:39.587Z,12.16
2022-12-22T12:40:54.543Z,12.15
2022-12-22T12:44:00.140Z,12.08
2022-12-22T12:47:25.693Z,12.03
2022-12-22T12:50:33.627Z,12.00
2022-12-22T12:53:36.276Z,11.97
2022-12-22T12:57:00.794Z,11.95
2022-12-22T13:00:05.921Z,11.99
2022-12-22T13:03:25.100Z,11.99
2022-12-22T13:06:54.391Z,12.05
2022-12-22T13:10:24.752Z,12.06
2022-12-22T13:13:52.196Z,12.08
2022-12-22T13:17:32.546Z,12.14
2022-12-22T13:20:38.544Z,12.05
2022-12-22T13:24:06.198Z,12.09
2022-12-22T13:27:11.839Z,12.14
2022-12-22T13:30:18.054Z,12.15
2022-12-22T13:33:25.106Z,12.12
2022-12-22T13:36:30.874Z,12.06
2022-12-22T13:39:36.729Z,12.00
2022-12-22T13:42:43.777Z,11.93
2022-12-22T13:45:50.293Z,11.80
2022-12-22T13:48:58.231Z,11.77
2022-12-22T13:52:14.071Z,11.77
2022-12-22T13:55:19.523Z,11.71
2022-12-22T13:58:36.997Z,11.68
2022-12-22T14:01:50.124Z,11.57
2022-12-22T14:05:13.113Z,11.68
2022-12-22T14:08:23.717Z,11.71
2022-12-22T14:11:26.425Z,11.72
2022-12-22T14:14:36.376Z,11.69
2022-12-22T14:17:46.224Z,11.67
2022-12-22T14:20:55.719Z,11.66
2022-12-22T14:23:59.844Z,11.65
2022-12-22T14:27:03.224Z,11.65
2022-12-22T14:30:21.237Z,11.56
2022-12-22T14:33:33.785Z,11.60
2022-12-22T14:36:40.655Z,11.53
2022-12-22T14:39:56.433Z,11.50
2022-12-22T14:43:01.917Z,11.47
2022-12-22T14:46:12.677Z,11.41
2022-12-22T14:49:18.600Z,11.38
2022-12-22T14:52:26.157Z,11.37
2022-12-22T14:55:32.267Z,11.35
2022-12-22T14:58:42.150Z,11.33
2022-12-22T15:01:58.127Z,11.31
2022-12-22T15:05:14.399Z,11.28
2022-12-22T15:08:38.994Z,11.25
2022-12-22T15:11:48.394Z,11.23
2022-12-22T15:14:53.928Z,11.20
2022-12-22T15:18:06.561Z,11.17
2022-12-22T15:21:12.823Z,11.15
2022-12-22T15:24:17.767Z,11.09
2022-12-22T15:27:21.803Z,11.11
2022-12-22T15:30:26.845Z,11.11
2022-12-22T15:33:30.954Z,11.07
2022-12-22T15:36:33.850Z,11.07
2022-12-22T15:39:36.484Z,11.06
2022-12-22T15:42:43.589Z,11.04
2022-12-22T15:45:52.285Z,11.02
2022-12-22T15:48:55.143Z,11.00
2022-12-22T15:52:01.953Z,11.00
2022-12-22T15:55:05.022Z,10.96
2022-12-22T15:58:12.250Z,10.91
2022-12-22T16:01:16.644Z,10.87
2022-12-22T16:04:22.423Z,10.83
2022-12-22T16:07:25.173Z,10.84
2022-12-22T16:10:31.027Z,10.81
2022-12-22T16:13:38.499Z,10.83
2022-12-22T16:16:41.658Z,10.78
2022-12-22T16:19:45.235Z,10.79
2022-12-22T16:22:49.553Z,10.82
2022-12-22T16:26:00.614Z,10.85
2022-12-22T16:29:05.718Z,10.88
2022-12-22T16:32:18.115Z,10.93
2022-12-22T16:35:24.285Z,10.95
2022-12-22T16:38:29.714Z,10.86
2022-12-22T16:41:32.502Z,10.84
2022-12-22T16:44:36.534Z,10.84
2022-12-22T16:47:45.770Z,10.84
2022-12-22T16:50:49.447Z,10.83
2022-12-22T16:53:52.857Z,10.83
2022-12-22T16:56:55.543Z,10.82
2022-12-22T16:59:59.528Z,10.84
2022-12-22T17:03:15.717Z,10.84
2022-12-22T17:06:21.664Z,10.84
2022-12-22T17:09:29.682Z,10.84
2022-12-22T17:12:35.535Z,10.85
2022-12-22T17:15:42.301Z,10.85
2022-12-22T17:18:45.011Z,10.86
2022-12-22T17:21:50.440Z,10.86
2022-12-22T17:24:57.653Z,10.83
2022-12-22T17:28:03.067Z,10.89
2022-12-22T17:31:07.784Z,10.89
2022-12-22T17:34:16.594Z,10.82
2022-12-22T17:37:22.065Z,10.75
2022-12-22T17:40:27.308Z,10.81
2022-12-22T17:43:30.180Z,10.83
2022-12-22T17:46:34.324Z,10.82
2022-12-22T17:49:37.007Z,10.83
2022-12-22T17:52:43.726Z,10.83
2022-12-22T17:59:13.002Z,10.84
2022-12-22T18:02:20.760Z,10.86
2022-12-22T18:05:26.987Z,10.76
2022-12-22T18:08:29.762Z,10.84
2022-12-22T18:11:32.512Z,10.84
2022-12-22T18:14:35.183Z,10.88
2022-12-22T18:17:39.919Z,10.88
2022-12-22T18:20:43.461Z,10.89
2022-12-22T18:23:50.453Z,10.77
2022-12-22T18:26:53.617Z,10.88
2022-12-22T18:29:56.357Z,10.85
2022-12-22T18:33:00.401Z,10.87
2022-12-22T18:36:03.852Z,10.89
2022-12-22T18:39:10.549Z,10.86
2022-12-22T18:42:21.737Z,10.93
2022-12-22T18:45:27.586Z,10.92
2022-12-22T18:48:31.786Z,10.96
2022-12-22T18:51:34.529Z,10.90
2022-12-22T18:54:38.113Z,10.91
2022-12-22T18:57:42.943Z,10.76
2022-12-22T19:00:46.139Z,10.91
2022-12-22T19:03:51.567Z,10.94
2022-12-22T19:06:54.463Z,10.93
2022-12-22T19:09:57.146Z,10.95
2022-12-22T19:13:01.059Z,10.96
2022-12-22T19:16:05.407Z,10.93
2022-12-22T19:19:16.019Z,10.91
2022-12-22T19:22:18.760Z,10.84
2022-12-22T19:25:25.801Z,10.89
2022-12-22T19:28:32.848Z,10.90
2022-12-22T19:31:38.859Z,10.95
2022-12-22T19:34:43.010Z,11.01
2022-12-22T19:37:46.341Z,10.90
2022-12-22T19:40:50.897Z,10.88
2022-12-22T19:43:53.629Z,11.04
2022-12-22T19:46:59.185Z,10.92
2022-12-22T19:50:03.327Z,11.05
2022-12-22T19:53:06.078Z,11.06
2022-12-22T19:56:24.708Z,11.02
2022-12-22T19:59:38.552Z,10.95
2022-12-22T20:02:42.695Z,10.84
2022-12-22T20:05:46.916Z,11.07
2022-12-22T20:08:49.785Z,11.08
2022-12-22T20:11:52.785Z,11.06
2022-12-22T20:14:55.757Z,11.06
2022-12-22T20:17:59.300Z,11.08
2022-12-22T20:21:06.379Z,10.76
2022-12-22T20:24:11.454Z,11.05
2022-12-22T20:27:18.936Z,10.88
2022-12-22T20:30:24.293Z,10.92
2022-12-22T20:33:28.327Z,10.12
2022-12-22T20:36:32.667Z,11.04
2022-12-22T20:39:35.640Z,11.02
2022-12-22T20:42:38.601Z,10.07
2022-12-22T20:45:43.220Z,10.88
2022-12-22T20:48:48.817Z,11.06
2022-12-22T20:51:52.785Z,10.92
2022-12-22T20:54:55.596Z,10.80
2022-12-22T20:58:01.056Z,11.06
2022-12-22T21:01:04.280Z,11.04
2022-12-22T21:04:07.192Z,11.04
2022-12-22T21:07:11.929Z,11.05
2022-12-22T21:10:19.822Z,11.01
2022-12-22T21:13:23.388Z,11.09
2022-12-22T21:16:28.432Z,11.09
2022-12-22T21:19:31.178Z,11.11
2022-12-22T21:22:35.297Z,11.09
2022-12-22T21:25:44.777Z,10.93
2022-12-22T21:28:49.654Z,11.07
2022-12-22T21:31:52.691Z,11.08
2022-12-22T21:34:55.325Z,11.07
2022-12-22T21:38:00.034Z,11.06
2022-12-22T21:41:03.456Z,11.03
2022-12-22T21:44:06.183Z,10.94
2022-12-22T21:47:11.650Z,10.84
2022-12-22T21:50:21.015Z,10.96
2022-12-22T21:53:25.021Z,11.04
2022-12-22T21:56:27.830Z,11.06
2022-12-22T21:59:30.569Z,11.04
2022-12-22T22:02:33.377Z,11.02
2022-12-22T22:05:37.560Z,11.02
2022-12-22T22:08:41.735Z,10.92
2022-12-22T22:12:02.044Z,10.86
2022-12-22T22:15:05.608Z,10.73
2022-12-22T22:18:08.367Z,10.87
2022-12-22T22:21:12.906Z,10.81
2022-12-22T22:24:17.085Z,10.80
2022-12-22T22:27:19.772Z,10.79
2022-12-22T22:30:24.900Z,10.83
2022-12-22T22:33:27.653Z,10.81
2022-12-22T22:36:30.369Z,10.88
2022-12-22T22:39:34.417Z,10.91
2022-12-22T22:42:37.240Z,10.91
2022-12-22T22:45:41.545Z,10.93
2022-12-22T22:48:44.244Z,10.90
2022-12-22T22:51:48.311Z,10.91
2022-12-22T22:54:52.374Z,10.94
2022-12-22T22:57:55.015Z,10.97
2022-12-22T23:01:05.235Z,10.85
2022-12-22T23:04:09.256Z,10.79
2022-12-22T23:07:12.309Z,10.67
2022-12-22T23:10:16.507Z,10.77
2022-12-22T23:13:19.296Z,10.78
2022-12-22T23:16:24.268Z,10.75
2022-12-22T23:19:27.347Z,10.76
2022-12-22T23:22:29.996Z,10.70
2022-12-22T23:25:34.487Z,10.66
2022-12-22T23:28:37.150Z,10.53
2022-12-22T23:31:40.019Z,10.46
2022-12-22T23:34:42.762Z,10.47
2022-12-22T23:37:45.462Z,10.49
2022-12-22T23:40:53.146Z,10.52
2022-12-22T23:43:57.024Z,10.55
2022-12-22T23:46:59.743Z,10.58
2022-12-22T23:50:02.506Z,10.56
2022-12-22T23:53:05.211Z,10.46
2022-12-22T23:56:09.403Z,10.39
2022-12-22T23:59:12.142Z,10.45
